createdAt,value
2022-11-04T00:00:28.752Z,101681.86
2022-11-04T00:02:58.939Z,101679.91
2022-11-04T00:05:27.834Z,101671.90
2022-11-04T00:08:14.964Z,101664.92
2022-11-04T00:11:01.801Z,101655.36
2022-11-04T00:13:31.171Z,101644.73
2022-11-04T00:16:21.652Z,101639.56
2022-11-04T00:18:50.260Z,101626.30
2022-11-04T00:21:37.560Z,101624.01
2022-11-04T00:24:25.303Z,101621.23
2022-11-04T00:27:12.266Z,101614.79
2022-11-04T00:29:40.893Z,101607.75
2022-11-04T00:32:28.041Z,101602.36
2022-11-04T00:34:57.446Z,101602.53
2022-11-04T00:37:26.210Z,101596.73
2022-11-04T00:39:54.953Z,101586.64
2022-11-04T00:42:23.258Z,101584.09
2022-11-04T00:44:52.329Z,101575.09
2022-11-04T00:47:21.269Z,101561.83
2022-11-04T00:49:50.022Z,101559.02
2022-11-04T00:52:18.746Z,101558.48
2022-11-04T00:54:47.373Z,101560.75
2022-11-04T00:57:16.299Z,101557.60
2022-11-04T00:59:47.817Z,101557.11
2022-11-04T01:02:16.727Z,101557.71
2022-11-04T01:04:45.493Z,101562.31
2022-11-04T01:07:14.640Z,101558.84
2022-11-04T01:09:43.522Z,101560.54
2022-11-04T01:12:12.550Z,101566.02
2022-11-04T01:14:41.494Z,101568.57
2022-11-04T01:17:10.546Z,101570.30
2022-11-04T01:19:39.219Z,101573.39
2022-11-04T01:22:07.956Z,101571.34
2022-11-04T01:24:36.597Z,101566.52
2022-11-04T01:27:05.101Z,101564.90
2022-11-04T01:29:33.503Z,101562.17
2022-11-04T01:32:02.448Z,101561.44
2022-11-04T01:34:31.307Z,101558.36
2022-11-04T01:37:00.405Z,101551.79
2022-11-04T01:39:28.960Z,101549.52
2022-11-04T01:41:57.670Z,101547.93
2022-11-04T01:44:44.740Z,101546.56
2022-11-04T01:47:37.380Z,101539.17
2022-11-04T01:50:10.912Z,101529.23
2022-11-04T01:52:45.219Z,101521.25
2022-11-04T01:55:27.380Z,101514.23
2022-11-04T01:58:00.963Z,101515.80
2022-11-04T02:00:30.312Z,101509.70
2022-11-04T02:03:07.687Z,101501.36
2022-11-04T02:05:37.297Z,101500.98
2022-11-04T02:08:08.386Z,101494.38
2022-11-04T02:10:38.500Z,101491.94
2022-11-04T02:13:07.862Z,101482.01
2022-11-04T02:15:54.912Z,101477.14
2022-11-04T02:18:44.263Z,101474.97
2022-11-04T02:21:20.928Z,101470.23
2022-11-04T02:24:04.344Z,101464.98
2022-11-04T02:26:51.314Z,101464.48
2022-11-04T02:29:29.273Z,101465.11
2022-11-04T02:32:27.327Z,101457.27
2022-11-04T02:35:24.832Z,101454.43
2022-11-04T02:38:17.017Z,101445.39
2022-11-04T02:41:00.582Z,101438.91
2022-11-04T02:43:47.076Z,101433.91
2022-11-04T02:46:26.557Z,101426.48
2022-11-04T02:49:08.969Z,101411.23
2022-11-04T02:51:50.903Z,101409.17
2022-11-04T02:54:26.163Z,101407.16
2022-11-04T02:56:58.276Z,101402.66
2022-11-04T02:59:38.849Z,101399.05
2022-11-04T03:02:12.723Z,101394.65
2022-11-04T03:04:47.125Z,101389.35
2022-11-04T03:07:20.805Z,101390.65
2022-11-04T03:09:54.402Z,101397.74
2022-11-04T03:12:31.307Z,101392.77
2022-11-04T03:15:06.930Z,101382.95
2022-11-04T03:17:55.077Z,101376.92
2022-11-04T03:20:28.661Z,101367.48
2022-11-04T03:23:00.989Z,101366.51
2022-11-04T03:25:34.467Z,101370.65
2022-11-04T03:28:20.758Z,101363.32
2022-11-04T03:30:54.110Z,101361.70
2022-11-04T03:33:47.739Z,101357.39
2022-11-04T03:36:16.831Z,101343.03
2022-11-04T03:38:45.959Z,101339.86
2022-11-04T03:41:24.957Z,101331.91
2022-11-04T03:43:53.462Z,101323.91
2022-11-04T03:46:23.491Z,101321.71
2022-11-04T03:48:54.603Z,101305.25
2022-11-04T03:51:26.297Z,101300.73
2022-11-04T03:53:55.624Z,101300.88
2022-11-04T03:56:33.182Z,101299.57
2022-11-04T03:59:36.962Z,101291.63
2022-11-04T04:02:16.570Z,101276.27
2022-11-04T04:04:59.767Z,101280.11
2022-11-04T04:07:44.141Z,101274.55
2022-11-04T04:10:40.127Z,101266.08
2022-11-04T04:13:31.074Z,101272.34
2022-11-04T04:16:23.346Z,101265.27
2022-11-04T04:19:22.993Z,101257.20
2022-11-04T04:22:01.964Z,101257.54
2022-11-04T04:24:56.321Z,101255.98
2022-11-04T04:27:34.215Z,101244.48
2022-11-04T04:30:15.309Z,101231.89
2022-11-04T04:32:52.296Z,101229.77
2022-11-04T04:35:44.411Z,101233.20
2022-11-04T04:38:46.773Z,101222.36
2022-11-04T04:41:36.304Z,101216.06
2022-11-04T04:44:27.121Z,101211.48
2022-11-04T04:46:58.118Z,101199.17
2022-11-04T04:49:36.089Z,101200.34
2022-11-04T04:52:08.420Z,101203.17
2022-11-04T04:54:37.154Z,101205.86
2022-11-04T04:57:05.791Z,101202.51
2022-11-04T04:59:34.666Z,101201.58
2022-11-04T05:02:03.330Z,101198.62
2022-11-04T05:04:32.349Z,101195.73
2022-11-04T05:07:01.122Z,101184.66
2022-11-04T05:09:30.070Z,101181.70
2022-11-04T05:11:58.930Z,101179.08
2022-11-04T05:14:27.516Z,101159.95
2022-11-04T05:16:56.295Z,101141.85
2022-11-04T05:19:25.493Z,101138.91
2022-11-04T05:21:54.217Z,101137.55
2022-11-04T05:24:23.502Z,101133.08
2022-11-04T05:26:52.548Z,101137.52
2022-11-04T05:29:21.070Z,101130.30
2022-11-04T05:31:49.932Z,101120.15
2022-11-04T05:34:18.755Z,101121.25
2022-11-04T05:36:47.320Z,101119.05
2022-11-04T05:39:16.164Z,101115.67
2022-11-04T05:41:44.600Z,101116.20
2022-11-04T05:44:13.627Z,101096.56
2022-11-04T05:46:42.926Z,101089.48
2022-11-04T05:49:11.793Z,101096.69
2022-11-04T05:51:40.809Z,101095.46
2022-11-04T05:54:10.496Z,101097.17
2022-11-04T05:56:38.921Z,101085.48
2022-11-04T05:59:07.758Z,101072.09
2022-11-04T06:01:38.966Z,101060.55
2022-11-04T06:04:08.996Z,101057.11
2022-11-04T06:06:39.876Z,101062.48
2022-11-04T06:09:08.961Z,101058.02
2022-11-04T06:11:38.376Z,101057.38
2022-11-04T06:14:07.161Z,101057.39
2022-11-04T06:16:35.809Z,101062.58
2022-11-04T06:19:09.627Z,101059.86
2022-11-04T06:21:40.778Z,101051.94
2022-11-04T06:24:09.671Z,101034.41
2022-11-04T06:26:40.867Z,101019.11
2022-11-04T06:29:13.718Z,101016.50
2022-11-04T06:31:42.968Z,101021.70
2022-11-04T06:34:12.497Z,101020.54
2022-11-04T06:36:41.270Z,101021.63
2022-11-04T06:39:12.222Z,101020.10
2022-11-04T06:41:42.980Z,101009.07
2022-11-04T06:44:12.626Z,101007.82
2022-11-04T06:46:43.312Z,101004.27
2022-11-04T06:49:16.086Z,101001.73
2022-11-04T06:51:44.933Z,100993.04
2022-11-04T06:54:13.658Z,100995.02
2022-11-04T06:56:42.933Z,100985.75
2022-11-04T06:59:20.293Z,100973.30
2022-11-04T07:01:51.175Z,100973.22
2022-11-04T07:04:20.406Z,100968.95
2022-11-04T07:06:49.318Z,100970.35
2022-11-04T07:09:18.743Z,100971.73
2022-11-04T07:11:47.848Z,100969.38
2022-11-04T07:14:16.530Z,100973.21
2022-11-04T07:16:45.149Z,100971.36
2022-11-04T07:19:13.896Z,100962.92
2022-11-04T07:21:42.797Z,100958.27
2022-11-04T07:24:11.334Z,100952.88
2022-11-04T07:26:40.068Z,100950.81
2022-11-04T07:29:09.159Z,100950.77
2022-11-04T07:31:37.768Z,100945.77
2022-11-04T07:34:06.740Z,100942.92
2022-11-04T07:36:35.368Z,100929.57
2022-11-04T07:39:04.109Z,100933.46
2022-11-04T07:41:32.834Z,100929.95
2022-11-04T07:44:03.121Z,100925.64
2022-11-04T07:46:31.541Z,100922.49
2022-11-04T07:49:00.703Z,100917.95
2022-11-04T07:51:29.759Z,100918.58
2022-11-04T07:53:58.721Z,100916.64
2022-11-04T07:56:27.829Z,100912.48
2022-11-04T07:58:56.863Z,100909.37
2022-11-04T08:01:25.889Z,100908.48
2022-11-04T08:03:54.758Z,100908.88
2022-11-04T08:06:24.522Z,100904.58
2022-11-04T08:08:54.972Z,100897.36
2022-11-04T08:11:29.388Z,100891.86
2022-11-04T08:13:58.553Z,100879.85
2022-11-04T08:16:33.089Z,100877.16
2022-11-04T08:19:03.463Z,100869.79
2022-11-04T08:21:33.814Z,100863.12
2022-11-04T08:24:04.883Z,100857.77
2022-11-04T08:26:33.539Z,100865.04
2022-11-04T08:29:03.430Z,100871.42
2022-11-04T08:31:34.808Z,100871.73
2022-11-04T08:34:04.051Z,100873.73
2022-11-04T08:36:37.617Z,100875.96
2022-11-04T08:39:10.656Z,100877.17
2022-11-04T08:41:46.401Z,100865.76
2022-11-04T08:44:15.512Z,100861.56
2022-11-04T08:46:46.444Z,100861.23
2022-11-04T08:49:19.640Z,100855.35
2022-11-04T08:51:55.964Z,100852.11
2022-11-04T08:54:26.015Z,100847.84
2022-11-04T08:56:55.590Z,100841.33
2022-11-04T08:59:25.979Z,100840.36
2022-11-04T09:01:55.506Z,100830.39
2022-11-04T09:04:25.184Z,100829.77
2022-11-04T09:06:53.941Z,100823.27
2022-11-04T09:09:23.190Z,100822.98
2022-11-04T09:11:52.012Z,100813.05
2022-11-04T09:14:21.974Z,100812.59
2022-11-04T09:16:50.740Z,100801.06
2022-11-04T09:19:19.674Z,100802.30
2022-11-04T09:21:48.246Z,100795.95
2022-11-04T09:24:16.719Z,100795.07
2022-11-04T09:26:45.894Z,100788.52
2022-11-04T09:29:14.138Z,100787.38
2022-11-04T09:31:44.225Z,100785.20
2022-11-04T09:34:12.803Z,100774.05
2022-11-04T09:36:41.077Z,100767.80
2022-11-04T09:39:10.659Z,100765.66
2022-11-04T09:42:02.124Z,100765.75
2022-11-04T09:45:20.529Z,100761.23
2022-11-04T09:47:49.955Z,100750.61
2022-11-04T09:50:42.871Z,100747.04
2022-11-04T09:53:19.194Z,100740.20
2022-11-04T09:56:01.670Z,100736.97
2022-11-04T09:58:35.347Z,100731.80
2022-11-04T10:01:28.906Z,100721.81
2022-11-04T10:04:00.760Z,100721.71
2022-11-04T10:07:12.458Z,100720.20
2022-11-04T10:10:02.561Z,100711.42
2022-11-04T10:12:58.172Z,100707.59
2022-11-04T10:15:36.000Z,100700.92
2022-11-04T10:18:13.849Z,100692.68
2022-11-04T10:20:58.524Z,100684.11
2022-11-04T10:23:52.462Z,100675.53
2022-11-04T10:26:34.155Z,100666.55
2022-11-04T10:29:16.499Z,100657.79
2022-11-04T10:31:47.862Z,100652.48
2022-11-04T10:34:30.789Z,100644.45
2022-11-04T10:37:00.053Z,100642.58
2022-11-04T10:39:32.441Z,100640.06
2022-11-04T10:42:00.850Z,100637.55
2022-11-04T10:44:36.646Z,100628.14
2022-11-04T10:47:23.226Z,100623.88
2022-11-04T10:50:30.999Z,100617.24
2022-11-04T10:53:21.904Z,100615.92
2022-11-04T10:55:55.797Z,100611.95
2022-11-04T10:58:36.360Z,100601.52
2022-11-04T11:01:31.379Z,100599.20
2022-11-04T11:04:01.096Z,100595.48
2022-11-04T11:06:30.943Z,100595.70
2022-11-04T11:09:14.317Z,100594.20
2022-11-04T11:11:43.198Z,100588.91
2022-11-04T11:14:33.708Z,100584.30
2022-11-04T11:17:19.833Z,100578.48
2022-11-04T11:20:06.320Z,100573.18
2022-11-04T11:22:43.915Z,100569.90
2022-11-04T11:25:34.299Z,100569.39
2022-11-04T11:28:06.282Z,100561.62
2022-11-04T11:30:48.123Z,100555.92
2022-11-04T11:33:21.451Z,100552.68
2022-11-04T11:35:56.231Z,100548.71
2022-11-04T11:38:31.229Z,100541.66
2022-11-04T11:41:24.885Z,100537.71
2022-11-04T11:43:57.110Z,100537.92
2022-11-04T11:46:29.159Z,100525.17
2022-11-04T11:49:02.358Z,100515.49
2022-11-04T11:51:34.085Z,100512.40
2022-11-04T11:54:18.385Z,100507.06
2022-11-04T11:57:13.627Z,100498.45
2022-11-04T12:06:29.501Z,100481.79
2022-11-04T12:09:22.837Z,100479.23
2022-11-04T12:12:40.300Z,100482.20
2022-11-04T12:15:32.057Z,100471.90
2022-11-04T12:18:21.569Z,100479.35
2022-11-04T12:21:12.404Z,100478.20
2022-11-04T12:23:46.304Z,100463.78
2022-11-04T12:26:26.824Z,100451.25
2022-11-04T12:28:57.858Z,100441.46
2022-11-04T12:31:39.000Z,100447.73
2022-11-04T12:34:42.959Z,100446.09
2022-11-04T12:37:43.219Z,100437.34
2022-11-04T12:40:25.558Z,100429.45
2022-11-04T12:43:18.944Z,100427.05
2022-11-04T12:46:10.932Z,100431.17
2022-11-04T12:48:57.052Z,100420.97
2022-11-04T12:51:56.584Z,100409.58
2022-11-04T12:55:02.787Z,100404.06
2022-11-04T12:58:05.373Z,100387.48
2022-11-04T13:00:39.674Z,100381.63
2022-11-04T13:03:17.870Z,100379.90
2022-11-04T13:05:49.105Z,100370.41
2022-11-04T13:08:29.675Z,100382.17
2022-11-04T13:11:40.670Z,100382.38
2022-11-04T13:14:30.126Z,100379.86
2022-11-04T13:17:12.618Z,100352.79
2022-11-04T13:19:56.251Z,100370.51
2022-11-04T13:22:27.355Z,100349.15
2022-11-04T13:25:16.201Z,100360.27
2022-11-04T13:27:52.171Z,100334.77
2022-11-04T13:30:26.645Z,100346.73
2022-11-04T13:32:57.550Z,100335.54
2022-11-04T13:35:44.504Z,100339.90
2022-11-04T13:38:22.111Z,100328.37
2022-11-04T13:40:59.241Z,100323.91
2022-11-04T13:43:39.407Z,100337.77
2022-11-04T13:49:14.420Z,100330.22
2022-11-04T13:52:11.758Z,100323.69
2022-11-04T13:54:43.883Z,100305.55
2022-11-04T13:57:22.240Z,100292.80
2022-11-04T14:00:18.808Z,100295.77
2022-11-04T14:03:28.847Z,100292.84
2022-11-04T14:06:07.586Z,100288.55
2022-11-04T14:08:37.098Z,100284.95
2022-11-04T14:11:12.188Z,100283.93
2022-11-04T14:13:45.131Z,100278.59
2022-11-04T14:16:43.651Z,100268.08
2022-11-04T14:19:49.237Z,100264.11
2022-11-04T14:22:19.080Z,100271.39
2022-11-04T14:24:57.712Z,100277.27
2022-11-04T14:27:41.081Z,100278.85
2022-11-04T14:30:29.496Z,100274.71
2022-11-04T14:33:02.177Z,100277.14
2022-11-04T14:35:32.286Z,100276.82
2022-11-04T14:38:08.232Z,100275.83
2022-11-04T14:40:55.449Z,100273.76
2022-11-04T14:43:45.600Z,100266.52
2022-11-04T14:46:22.154Z,100258.42
2022-11-04T14:48:55.615Z,100258.80
2022-11-04T14:51:32.028Z,100260.19
2022-11-04T14:54:32.614Z,100263.50
2022-11-04T14:57:19.738Z,100247.45
2022-11-04T14:59:48.945Z,100246.23
2022-11-04T15:02:26.420Z,100240.53
2022-11-04T15:04:59.989Z,100238.98
2022-11-04T15:07:38.988Z,100243.48
2022-11-04T15:10:24.785Z,100241.92
2022-11-04T15:12:58.589Z,100237.61
2022-11-04T15:15:30.519Z,100246.09
2022-11-04T15:18:16.246Z,100246.27
2022-11-04T15:20:54.279Z,100246.80
2022-11-04T15:23:31.491Z,100244.40
2022-11-04T15:26:01.044Z,100247.52
2022-11-04T15:28:49.598Z,100254.98
2022-11-04T15:31:21.939Z,100249.64
2022-11-04T15:34:00.947Z,100248.79
2022-11-04T15:36:42.975Z,100244.14
2022-11-04T15:39:19.312Z,100248.66
2022-11-04T15:42:07.551Z,100246.44
2022-11-04T15:44:39.061Z,100240.59
2022-11-04T15:47:20.722Z,100231.43
2022-11-04T15:49:51.592Z,100229.36
2022-11-04T15:52:24.709Z,100231.80
2022-11-04T15:54:56.279Z,100235.29
2022-11-04T15:57:34.440Z,100226.48
2022-11-04T16:00:29.693Z,100219.21
2022-11-04T16:03:00.068Z,100221.14
2022-11-04T16:05:39.306Z,100225.66
2022-11-04T16:08:28.702Z,100221.34
2022-11-04T16:11:16.464Z,100214.43
2022-11-04T16:13:46.373Z,100205.27
2022-11-04T16:16:25.888Z,100201.63
2022-11-04T16:19:00.040Z,100192.64
2022-11-04T16:21:36.835Z,100184.15
2022-11-04T16:24:33.642Z,100183.47
2022-11-04T16:27:02.863Z,100182.27
2022-11-04T16:29:34.809Z,100171.18
2022-11-04T16:32:28.421Z,100173.96
2022-11-04T16:35:04.631Z,100184.52
2022-11-04T16:37:33.682Z,100161.83
2022-11-04T16:40:02.259Z,100174.31
2022-11-04T16:42:30.934Z,100160.27
2022-11-04T16:45:03.470Z,100159.92
2022-11-04T16:47:33.295Z,100164.09
2022-11-04T16:50:03.428Z,100156.46
2022-11-04T16:52:32.510Z,100157.50
2022-11-04T16:55:03.668Z,100152.48
2022-11-04T16:57:32.382Z,100140.69
2022-11-04T17:00:01.354Z,100139.66
2022-11-04T17:02:32.325Z,100135.50
2022-11-04T17:05:00.966Z,100127.71
2022-11-04T17:07:47.233Z,100124.59
2022-11-04T17:10:21.782Z,100118.68
2022-11-04T17:12:50.668Z,100118.34
2022-11-04T17:15:19.371Z,100120.59
2022-11-04T17:17:48.296Z,100121.63
2022-11-04T17:20:19.313Z,100122.67
2022-11-04T17:22:49.888Z,100120.76
2022-11-04T17:25:27.898Z,100117.13
2022-11-04T17:27:56.828Z,100109.30
2022-11-04T17:30:26.188Z,100106.88
2022-11-04T17:32:55.223Z,100096.11
2022-11-04T17:35:24.148Z,100097.48
2022-11-04T17:37:54.378Z,100096.60
2022-11-04T17:40:25.190Z,100088.27
2022-11-04T17:43:12.933Z,100081.49
2022-11-04T17:45:45.302Z,100076.61
2022-11-04T17:48:16.418Z,100068.10
2022-11-04T17:50:45.221Z,100069.98
2022-11-04T17:53:13.854Z,100059.55
2022-11-04T17:55:43.382Z,100059.17
2022-11-04T17:58:12.822Z,100062.60
2022-11-04T18:00:42.060Z,100061.88
2022-11-04T18:03:13.419Z,100055.58
2022-11-04T18:05:42.578Z,100058.15
2022-11-04T18:08:14.202Z,100054.12
2022-11-04T18:10:43.294Z,100041.75
2022-11-04T18:13:12.757Z,100040.49
2022-11-04T18:15:41.402Z,100043.23
2022-11-04T18:18:09.922Z,100036.92
2022-11-04T18:20:38.306Z,100037.42
2022-11-04T18:23:06.926Z,100038.23
2022-11-04T18:25:35.452Z,100044.27
2022-11-04T18:28:03.841Z,100046.80
2022-11-04T18:30:32.110Z,100049.20
2022-11-04T18:33:00.906Z,100043.91
2022-11-04T18:35:30.149Z,100043.85
2022-11-04T18:37:59.407Z,100040.31
2022-11-04T18:40:28.263Z,100037.82
2022-11-04T18:42:57.280Z,100034.84
2022-11-04T18:45:25.941Z,100028.16
2022-11-04T18:47:55.103Z,100029.84
2022-11-04T18:50:23.877Z,100029.98
2022-11-04T18:52:56.509Z,100020.71
2022-11-04T18:55:25.480Z,100015.45
2022-11-04T18:57:57.398Z,100013.49
2022-11-04T19:00:26.678Z,100017.61
2022-11-04T19:02:55.460Z,100012.31
2022-11-04T19:05:24.414Z,100007.23
2022-11-04T19:07:53.073Z,100002.81
2022-11-04T19:10:21.654Z,99993.38
2022-11-04T19:13:08.583Z,99996.28
2022-11-04T19:15:37.217Z,100004.23
2022-11-04T19:18:05.860Z,99991.48
2022-11-04T19:20:36.185Z,99984.98
2022-11-04T19:23:05.109Z,99974.33
2022-11-04T19:25:34.207Z,99962.80
2022-11-04T19:28:31.208Z,99942.71
2022-11-04T19:31:02.683Z,99944.23
2022-11-04T19:33:32.347Z,99945.04
2022-11-04T19:36:01.032Z,99945.88
2022-11-04T19:38:29.777Z,99943.04
2022-11-04T19:41:03.289Z,99943.16
2022-11-04T19:43:31.685Z,99934.05
2022-11-04T19:46:04.883Z,99936.95
2022-11-04T19:48:33.492Z,99940.70
2022-11-04T19:51:02.235Z,99947.42
2022-11-04T19:53:31.723Z,99941.94
2022-11-04T19:56:00.737Z,99920.08
2022-11-04T19:58:29.473Z,99918.97
2022-11-04T20:00:57.942Z,99916.48
2022-11-04T20:03:26.859Z,99911.58
2022-11-04T20:05:55.715Z,99906.48
2022-11-04T20:08:24.628Z,99901.07
2022-11-04T20:10:52.968Z,99892.50
2022-11-04T20:13:42.269Z,99887.60
2022-11-04T20:16:20.747Z,99871.70
2022-11-04T20:18:52.304Z,99869.23
2022-11-04T20:21:22.433Z,99880.20
2022-11-04T20:23:55.857Z,99880.15
2022-11-04T20:26:25.351Z,99878.38
2022-11-04T20:29:01.531Z,99880.11
2022-11-04T20:31:33.580Z,99880.79
2022-11-04T20:34:06.020Z,99884.78
2022-11-04T20:36:35.500Z,99887.04
2022-11-04T20:39:07.415Z,99885.99
2022-11-04T20:41:35.977Z,99877.09
2022-11-04T20:44:05.111Z,99858.42
2022-11-04T20:46:35.719Z,99849.86
2022-11-04T20:49:05.620Z,99845.33
2022-11-04T20:51:37.007Z,99839.94
2022-11-04T20:54:07.649Z,99835.38
2022-11-04T20:56:38.175Z,99829.78
2022-11-04T20:59:07.684Z,99833.27
2022-11-04T21:01:38.948Z,99848.25
2022-11-04T21:04:21.457Z,99854.33
2022-11-04T21:06:52.869Z,99845.77
2022-11-04T21:09:22.738Z,99831.82
2022-11-04T21:11:52.509Z,99826.23
2022-11-04T21:14:21.335Z,99827.79
2022-11-04T21:16:50.073Z,99828.12
2022-11-04T21:19:20.056Z,99828.45
2022-11-04T21:21:48.657Z,99835.95
2022-11-04T21:24:17.836Z,99832.85
2022-11-04T21:26:47.029Z,99830.91
2022-11-04T21:29:18.278Z,99830.02
2022-11-04T21:31:48.153Z,99828.60
2022-11-04T21:34:19.997Z,99832.36
2022-11-04T21:36:52.476Z,99822.56
2022-11-04T21:39:21.535Z,99818.02
2022-11-04T21:41:50.404Z,99810.88
2022-11-04T21:44:18.917Z,99797.10
2022-11-04T21:46:49.519Z,99792.73
2022-11-04T21:49:18.836Z,99798.14
2022-11-04T21:51:47.257Z,99785.95
2022-11-04T21:54:15.605Z,99778.63
2022-11-04T21:56:44.232Z,99776.36
2022-11-04T21:59:18.123Z,99766.91
2022-11-04T22:01:47.609Z,99769.84
2022-11-04T22:04:16.346Z,99783.08
2022-11-04T22:06:46.344Z,99785.17
2022-11-04T22:09:15.243Z,99778.18
2022-11-04T22:11:43.963Z,99764.42
2022-11-04T22:14:13.933Z,99763.58
2022-11-04T22:16:42.898Z,99763.23
2022-11-04T22:19:15.842Z,99759.73
2022-11-04T22:21:46.396Z,99760.77
2022-11-04T22:24:17.455Z,99754.69
2022-11-04T22:26:47.118Z,99749.31
2022-11-04T22:29:15.979Z,99738.66
2022-11-04T22:31:44.577Z,99734.97
2022-11-04T22:34:13.539Z,99727.09
2022-11-04T22:36:41.964Z,99721.47
2022-11-04T22:39:16.879Z,99719.16
2022-11-04T22:41:47.154Z,99715.63
2022-11-04T22:44:16.303Z,99705.66
2022-11-04T22:46:45.043Z,99694.82
2022-11-04T22:49:16.793Z,99705.43
2022-11-04T22:51:45.132Z,99708.38
2022-11-04T22:54:16.685Z,99708.67
2022-11-04T22:56:45.985Z,99705.52
2022-11-04T22:59:14.863Z,99699.95
2022-11-04T23:01:43.723Z,99698.91
2022-11-04T23:04:13.370Z,99681.28
2022-11-04T23:06:45.205Z,99676.23
2022-11-04T23:09:14.888Z,99679.36
2022-11-04T23:12:02.403Z,99675.70
2022-11-04T23:14:49.866Z,99671.16
2022-11-04T23:17:45.279Z,99661.91
2022-11-04T23:20:16.511Z,99643.77
2022-11-04T23:23:03.432Z,99637.49
2022-11-04T23:25:32.209Z,99638.69
2022-11-04T23:28:21.452Z,99626.79
2022-11-04T23:30:53.260Z,99611.91
2022-11-04T23:33:42.338Z,99616.41
2022-11-04T23:36:30.194Z,99621.94
2022-11-04T23:39:02.411Z,99627.02
2022-11-04T23:41:49.700Z,99625.79
2022-11-04T23:44:38.058Z,99618.44
2022-11-04T23:47:25.637Z,99618.61
2022-11-04T23:50:13.499Z,99614.95
2022-11-04T23:53:00.810Z,99617.60
2022-11-04T23:55:47.614Z,99608.55
2022-11-04T23:58:51.022Z,99611.56
